sensor_id;sensor_type;location;lat;lon;timestamp;P1;durP1;ratioP1;P2;durP2;ratioP2
43990;SDS011;29654;50.784;20.604;2023-05-09T00:03:56;16.00;;;11.05;;
43990;SDS011;29654;50.784;20.604;2023-05-09T00:08:59;15.57;;;11.32;;
43990;SDS011;29654;50.784;20.604;2023-05-09T00:14:04;15.85;;;11.25;;
43990;SDS011;29654;50.784;20.604;2023-05-09T00:19:07;11.30;;;9.90;;
43990;SDS011;29654;50.784;20.604;2023-05-09T00:24:10;11.95;;;8.52;;
43990;SDS011;29654;50.784;20.604;2023-05-09T00:29:14;13.95;;;9.63;;
43990;SDS011;29654;50.784;20.604;2023-05-09T00:34:17;16.63;;;11.30;;
43990;SDS011;29654;50.784;20.604;2023-05-09T00:39:19;16.80;;;11.32;;
43990;SDS011;29654;50.784;20.604;2023-05-09T00:44:23;12.75;;;8.77;;
43990;SDS011;29654;50.784;20.604;2023-05-09T00:49:26;17.17;;;11.32;;
43990;SDS011;29654;50.784;20.604;2023-05-09T00:54:28;17.25;;;12.20;;
43990;SDS011;29654;50.784;20.604;2023-05-09T00:59:33;14.65;;;10.98;;
43990;SDS011;29654;50.784;20.604;2023-05-09T01:04:36;14.93;;;10.38;;
43990;SDS011;29654;50.784;20.604;2023-05-09T01:09:42;13.40;;;10.20;;
43990;SDS011;29654;50.784;20.604;2023-05-09T01:14:55;14.32;;;10.48;;
43990;SDS011;29654;50.784;20.604;2023-05-09T01:20:09;14.52;;;9.85;;
43990;SDS011;29654;50.784;20.604;2023-05-09T01:25:43;11.52;;;8.45;;
43990;SDS011;29654;50.784;20.604;2023-05-09T01:30:57;13.07;;;9.82;;
43990;SDS011;29654;50.784;20.604;2023-05-09T01:36:00;13.60;;;10.13;;
43990;SDS011;29654;50.784;20.604;2023-05-09T01:41:07;12.45;;;9.52;;
43990;SDS011;29654;50.784;20.604;2023-05-09T01:46:13;10.60;;;8.35;;
43990;SDS011;29654;50.784;20.604;2023-05-09T01:51:19;11.48;;;8.68;;
43990;SDS011;29654;50.784;20.604;2023-05-09T01:56:23;12.07;;;8.10;;
43990;SDS011;29654;50.784;20.604;2023-05-09T02:01:28;8.98;;;7.15;;
43990;SDS011;29654;50.784;20.604;2023-05-09T02:06:31;11.85;;;9.18;;
43990;SDS011;29654;50.784;20.604;2023-05-09T02:11:35;11.43;;;8.50;;
43990;SDS011;29654;50.784;20.604;2023-05-09T02:16:39;9.90;;;8.10;;
43990;SDS011;29654;50.784;20.604;2023-05-09T02:21:42;10.43;;;7.38;;
43990;SDS011;29654;50.784;20.604;2023-05-09T02:26:45;14.32;;;9.05;;
43990;SDS011;29654;50.784;20.604;2023-05-09T02:31:49;12.05;;;8.63;;
43990;SDS011;29654;50.784;20.604;2023-05-09T02:36:53;9.65;;;8.65;;
43990;SDS011;29654;50.784;20.604;2023-05-09T02:41:56;10.15;;;8.20;;
43990;SDS011;29654;50.784;20.604;2023-05-09T02:47:08;9.77;;;7.78;;
43990;SDS011;29654;50.784;20.604;2023-05-09T02:52:11;11.45;;;9.20;;
43990;SDS011;29654;50.784;20.604;2023-05-09T02:57:14;11.65;;;9.85;;
43990;SDS011;29654;50.784;20.604;2023-05-09T03:02:18;12.80;;;9.23;;
43990;SDS011;29654;50.784;20.604;2023-05-09T03:07:21;11.90;;;9.55;;
43990;SDS011;29654;50.784;20.604;2023-05-09T03:12:24;10.25;;;8.18;;
43990;SDS011;29654;50.784;20.604;2023-05-09T03:17:30;9.57;;;7.38;;
43990;SDS011;29654;50.784;20.604;2023-05-09T03:22:33;11.65;;;7.50;;
43990;SDS011;29654;50.784;20.604;2023-05-09T03:27:38;11.05;;;7.32;;
43990;SDS011;29654;50.784;20.604;2023-05-09T03:32:46;10.35;;;7.10;;
43990;SDS011;29654;50.784;20.604;2023-05-09T03:37:49;9.20;;;6.82;;
43990;SDS011;29654;50.784;20.604;2023-05-09T03:42:51;8.55;;;6.82;;
43990;SDS011;29654;50.784;20.604;2023-05-09T03:47:55;9.50;;;7.15;;
43990;SDS011;29654;50.784;20.604;2023-05-09T03:52:58;8.38;;;7.47;;
43990;SDS011;29654;50.784;20.604;2023-05-09T03:58:01;7.57;;;6.38;;
43990;SDS011;29654;50.784;20.604;2023-05-09T04:03:07;8.52;;;5.70;;
43990;SDS011;29654;50.784;20.604;2023-05-09T04:08:14;7.28;;;5.47;;
43990;SDS011;29654;50.784;20.604;2023-05-09T04:13:17;6.45;;;4.55;;
43990;SDS011;29654;50.784;20.604;2023-05-09T04:18:21;7.03;;;5.25;;
43990;SDS011;29654;50.784;20.604;2023-05-09T04:23:24;8.10;;;6.13;;
43990;SDS011;29654;50.784;20.604;2023-05-09T04:28:29;10.65;;;8.40;;
43990;SDS011;29654;50.784;20.604;2023-05-09T04:33:34;8.52;;;5.95;;
43990;SDS011;29654;50.784;20.604;2023-05-09T04:38:38;6.88;;;5.35;;
43990;SDS011;29654;50.784;20.604;2023-05-09T04:43:45;9.50;;;5.65;;
43990;SDS011;29654;50.784;20.604;2023-05-09T04:48:49;6.68;;;5.57;;
43990;SDS011;29654;50.784;20.604;2023-05-09T04:53:52;6.40;;;5.22;;
43990;SDS011;29654;50.784;20.604;2023-05-09T04:58:59;6.50;;;4.57;;
43990;SDS011;29654;50.784;20.604;2023-05-09T05:04:04;4.93;;;4.43;;
43990;SDS011;29654;50.784;20.604;2023-05-09T05:09:08;4.50;;;4.10;;
43990;SDS011;29654;50.784;20.604;2023-05-09T05:14:12;4.97;;;3.78;;
43990;SDS011;29654;50.784;20.604;2023-05-09T05:19:16;3.50;;;3.25;;
43990;SDS011;29654;50.784;20.604;2023-05-09T05:24:19;4.18;;;3.08;;
43990;SDS011;29654;50.784;20.604;2023-05-09T05:29:22;4.35;;;2.92;;
43990;SDS011;29654;50.784;20.604;2023-05-09T05:34:26;2.85;;;2.65;;
43990;SDS011;29654;50.784;20.604;2023-05-09T05:39:29;2.88;;;2.35;;
43990;SDS011;29654;50.784;20.604;2023-05-09T05:44:32;3.47;;;2.65;;
43990;SDS011;29654;50.784;20.604;2023-05-09T05:49:36;4.57;;;2.20;;
43990;SDS011;29654;50.784;20.604;2023-05-09T05:54:39;2.92;;;2.65;;
43990;SDS011;29654;50.784;20.604;2023-05-09T05:59:42;2.53;;;2.33;;
43990;SDS011;29654;50.784;20.604;2023-05-09T06:04:49;3.42;;;2.38;;
43990;SDS011;29654;50.784;20.604;2023-05-09T06:09:52;2.05;;;1.85;;
43990;SDS011;29654;50.784;20.604;2023-05-09T06:14:55;2.28;;;2.08;;
43990;SDS011;29654;50.784;20.604;2023-05-09T06:19:59;2.10;;;1.95;;
43990;SDS011;29654;50.784;20.604;2023-05-09T06:25:01;2.38;;;1.75;;
43990;SDS011;29654;50.784;20.604;2023-05-09T06:30:05;3.33;;;1.77;;
43990;SDS011;29654;50.784;20.604;2023-05-09T06:35:11;2.70;;;1.98;;
43990;SDS011;29654;50.784;20.604;2023-05-09T06:40:14;2.03;;;1.65;;
43990;SDS011;29654;50.784;20.604;2023-05-09T06:45:17;2.75;;;2.15;;
43990;SDS011;29654;50.784;20.604;2023-05-09T06:50:21;3.00;;;1.75;;
43990;SDS011;29654;50.784;20.604;2023-05-09T06:55:24;5.80;;;2.10;;
43990;SDS011;29654;50.784;20.604;2023-05-09T07:00:26;2.40;;;1.63;;
43990;SDS011;29654;50.784;20.604;2023-05-09T07:05:30;3.35;;;1.92;;
43990;SDS011;29654;50.784;20.604;2023-05-09T07:10:33;1.70;;;1.60;;
43990;SDS011;29654;50.784;20.604;2023-05-09T07:15:37;3.03;;;2.20;;
43990;SDS011;29654;50.784;20.604;2023-05-09T07:20:41;2.42;;;1.85;;
43990;SDS011;29654;50.784;20.604;2023-05-09T07:25:44;2.50;;;2.17;;
43990;SDS011;29654;50.784;20.604;2023-05-09T07:30:47;3.22;;;2.22;;
43990;SDS011;29654;50.784;20.604;2023-05-09T07:35:51;4.38;;;2.20;;
43990;SDS011;29654;50.784;20.604;2023-05-09T07:40:53;2.35;;;2.15;;
43990;SDS011;29654;50.784;20.604;2023-05-09T07:45:56;2.45;;;1.80;;
43990;SDS011;29654;50.784;20.604;2023-05-09T07:51:00;3.00;;;1.70;;
43990;SDS011;29654;50.784;20.604;2023-05-09T07:56:03;3.40;;;1.83;;
43990;SDS011;29654;50.784;20.604;2023-05-09T08:01:07;2.35;;;1.65;;
43990;SDS011;29654;50.784;20.604;2023-05-09T08:06:11;3.80;;;1.48;;
43990;SDS011;29654;50.784;20.604;2023-05-09T08:11:13;3.50;;;1.70;;
43990;SDS011;29654;50.784;20.604;2023-05-09T08:16:16;2.15;;;1.98;;
43990;SDS011;29654;50.784;20.604;2023-05-09T08:21:20;2.13;;;1.75;;
43990;SDS011;29654;50.784;20.604;2023-05-09T08:26:22;2.25;;;1.60;;
43990;SDS011;29654;50.784;20.604;2023-05-09T08:31:26;1.58;;;1.48;;
43990;SDS011;29654;50.784;20.604;2023-05-09T08:36:30;2.42;;;2.03;;
43990;SDS011;29654;50.784;20.604;2023-05-09T08:41:33;4.60;;;2.70;;
43990;SDS011;29654;50.784;20.604;2023-05-09T08:46:37;1.88;;;1.70;;
43990;SDS011;29654;50.784;20.604;2023-05-09T08:51:43;1.77;;;1.67;;
43990;SDS011;29654;50.784;20.604;2023-05-09T08:56:48;2.20;;;1.48;;
43990;SDS011;29654;50.784;20.604;2023-05-09T09:01:52;2.38;;;1.90;;
43990;SDS011;29654;50.784;20.604;2023-05-09T09:06:56;2.88;;;1.77;;
43990;SDS011;29654;50.784;20.604;2023-05-09T09:12:00;1.80;;;1.55;;
43990;SDS011;29654;50.784;20.604;2023-05-09T09:17:06;2.20;;;2.00;;
43990;SDS011;29654;50.784;20.604;2023-05-09T09:22:13;2.15;;;1.48;;
43990;SDS011;29654;50.784;20.604;2023-05-09T09:27:19;2.10;;;1.50;;
43990;SDS011;29654;50.784;20.604;2023-05-09T09:32:23;2.50;;;1.83;;
43990;SDS011;29654;50.784;20.604;2023-05-09T09:37:36;4.38;;;1.83;;
43990;SDS011;29654;50.784;20.604;2023-05-09T09:42:41;3.08;;;1.60;;
43990;SDS011;29654;50.784;20.604;2023-05-09T09:47:45;2.25;;;1.75;;
43990;SDS011;29654;50.784;20.604;2023-05-09T09:52:52;2.30;;;1.70;;
43990;SDS011;29654;50.784;20.604;2023-05-09T09:57:56;2.20;;;1.27;;
43990;SDS011;29654;50.784;20.604;2023-05-09T10:05:53;2.95;;;1.70;;
43990;SDS011;29654;50.784;20.604;2023-05-09T10:11:02;1.83;;;1.73;;
43990;SDS011;29654;50.784;20.604;2023-05-09T10:16:05;3.38;;;1.42;;
43990;SDS011;29654;50.784;20.604;2023-05-09T10:21:12;1.50;;;1.40;;
43990;SDS011;29654;50.784;20.604;2023-05-09T10:26:16;2.45;;;1.80;;
43990;SDS011;29654;50.784;20.604;2023-05-09T10:31:27;2.72;;;1.63;;
43990;SDS011;29654;50.784;20.604;2023-05-09T10:36:34;2.00;;;1.42;;
43990;SDS011;29654;50.784;20.604;2023-05-09T10:41:37;2.88;;;1.55;;
43990;SDS011;29654;50.784;20.604;2023-05-09T10:46:40;5.10;;;1.73;;
43990;SDS011;29654;50.784;20.604;2023-05-09T10:51:44;1.38;;;1.25;;
43990;SDS011;29654;50.784;20.604;2023-05-09T10:56:47;1.73;;;1.63;;
43990;SDS011;29654;50.784;20.604;2023-05-09T11:01:51;1.77;;;1.52;;
43990;SDS011;29654;50.784;20.604;2023-05-09T11:07:01;4.07;;;1.67;;
43990;SDS011;29654;50.784;20.604;2023-05-09T11:12:07;4.13;;;2.03;;
43990;SDS011;29654;50.784;20.604;2023-05-09T11:17:12;2.58;;;1.70;;
43990;SDS011;29654;50.784;20.604;2023-05-09T11:22:30;1.75;;;1.65;;
43990;SDS011;29654;50.784;20.604;2023-05-09T11:27:41;1.45;;;1.35;;
43990;SDS011;29654;50.784;20.604;2023-05-09T11:32:46;2.13;;;1.50;;
43990;SDS011;29654;50.784;20.604;2023-05-09T11:37:59;1.77;;;1.50;;
43990;SDS011;29654;50.784;20.604;2023-05-09T11:43:05;1.70;;;1.60;;
43990;SDS011;29654;50.784;20.604;2023-05-09T11:48:08;2.13;;;1.92;;
43990;SDS011;29654;50.784;20.604;2023-05-09T11:53:12;1.67;;;1.58;;
43990;SDS011;29654;50.784;20.604;2023-05-09T11:58:15;1.50;;;1.40;;
43990;SDS011;29654;50.784;20.604;2023-05-09T12:03:18;1.55;;;1.45;;
43990;SDS011;29654;50.784;20.604;2023-05-09T12:08:22;2.63;;;1.60;;
43990;SDS011;29654;50.784;20.604;2023-05-09T12:13:26;2.88;;;1.35;;
43990;SDS011;29654;50.784;20.604;2023-05-09T12:18:28;1.77;;;1.42;;
43990;SDS011;29654;50.784;20.604;2023-05-09T12:23:34;1.38;;;1.27;;
43990;SDS011;29654;50.784;20.604;2023-05-09T12:28:37;1.20;;;1.17;;
43990;SDS011;29654;50.784;20.604;2023-05-09T12:33:40;2.53;;;1.60;;
43990;SDS011;29654;50.784;20.604;2023-05-09T12:38:52;1.98;;;1.58;;
43990;SDS011;29654;50.784;20.604;2023-05-09T12:43:55;1.80;;;1.70;;
43990;SDS011;29654;50.784;20.604;2023-05-09T12:48:58;2.05;;;1.40;;
43990;SDS011;29654;50.784;20.604;2023-05-09T12:54:03;1.85;;;1.33;;
43990;SDS011;29654;50.784;20.604;2023-05-09T12:59:06;1.73;;;1.55;;
43990;SDS011;29654;50.784;20.604;2023-05-09T13:04:14;2.00;;;1.70;;
43990;SDS011;29654;50.784;20.604;2023-05-09T13:09:18;1.70;;;1.60;;
43990;SDS011;29654;50.784;20.604;2023-05-09T13:14:21;2.33;;;1.45;;
43990;SDS011;29654;50.784;20.604;2023-05-09T13:19:24;2.83;;;1.60;;
43990;SDS011;29654;50.784;20.604;2023-05-09T13:24:28;1.33;;;1.23;;
43990;SDS011;29654;50.784;20.604;2023-05-09T13:29:30;3.50;;;1.70;;
43990;SDS011;29654;50.784;20.604;2023-05-09T13:34:33;1.60;;;1.50;;
43990;SDS011;29654;50.784;20.604;2023-05-09T13:39:37;1.77;;;1.58;;
43990;SDS011;29654;50.784;20.604;2023-05-09T13:44:39;1.42;;;1.27;;
43990;SDS011;29654;50.784;20.604;2023-05-09T13:49:42;2.42;;;1.40;;
43990;SDS011;29654;50.784;20.604;2023-05-09T13:54:46;2.55;;;1.63;;
43990;SDS011;29654;50.784;20.604;2023-05-09T13:59:48;2.17;;;1.67;;
43990;SDS011;29654;50.784;20.604;2023-05-09T14:04:51;1.50;;;1.40;;
43990;SDS011;29654;50.784;20.604;2023-05-09T14:09:55;2.22;;;1.42;;
43990;SDS011;29654;50.784;20.604;2023-05-09T14:15:00;2.20;;;1.70;;
43990;SDS011;29654;50.784;20.604;2023-05-09T14:20:04;1.50;;;1.40;;
43990;SDS011;29654;50.784;20.604;2023-05-09T14:25:09;2.30;;;1.60;;
43990;SDS011;29654;50.784;20.604;2023-05-09T14:30:12;2.55;;;1.77;;
43990;SDS011;29654;50.784;20.604;2023-05-09T14:35:15;2.45;;;1.73;;
43990;SDS011;29654;50.784;20.604;2023-05-09T14:40:20;3.03;;;1.75;;
43990;SDS011;29654;50.784;20.604;2023-05-09T14:45:22;3.33;;;1.65;;
43990;SDS011;29654;50.784;20.604;2023-05-09T14:50:25;1.70;;;1.60;;
43990;SDS011;29654;50.784;20.604;2023-05-09T14:55:30;2.58;;;1.40;;
43990;SDS011;29654;50.784;20.604;2023-05-09T15:00:33;1.83;;;1.63;;
43990;SDS011;29654;50.784;20.604;2023-05-09T15:05:35;2.35;;;1.45;;
43990;SDS011;29654;50.784;20.604;2023-05-09T15:10:39;1.50;;;1.40;;
43990;SDS011;29654;50.784;20.604;2023-05-09T15:15:42;3.17;;;1.60;;
43990;SDS011;29654;50.784;20.604;2023-05-09T15:20:45;1.50;;;1.40;;
43990;SDS011;29654;50.784;20.604;2023-05-09T15:25:49;1.67;;;1.55;;
43990;SDS011;29654;50.784;20.604;2023-05-09T15:30:51;1.90;;;1.70;;
43990;SDS011;29654;50.784;20.604;2023-05-09T15:35:55;4.63;;;1.48;;
43990;SDS011;29654;50.784;20.604;2023-05-09T15:41:01;2.22;;;1.48;;
43990;SDS011;29654;50.784;20.604;2023-05-09T15:46:03;1.33;;;1.23;;
43990;SDS011;29654;50.784;20.604;2023-05-09T15:51:06;1.70;;;1.60;;
43990;SDS011;29654;50.784;20.604;2023-05-09T15:56:11;1.85;;;1.48;;
43990;SDS011;29654;50.784;20.604;2023-05-09T16:01:13;1.75;;;1.15;;
43990;SDS011;29654;50.784;20.604;2023-05-09T16:06:16;2.15;;;1.80;;
43990;SDS011;29654;50.784;20.604;2023-05-09T16:11:20;1.73;;;1.30;;
43990;SDS011;29654;50.784;20.604;2023-05-09T16:16:23;1.27;;;1.17;;
43990;SDS011;29654;50.784;20.604;2023-05-09T16:21:26;1.50;;;1.40;;
43990;SDS011;29654;50.784;20.604;2023-05-09T16:26:30;2.25;;;1.52;;
43990;SDS011;29654;50.784;20.604;2023-05-09T16:31:33;1.70;;;1.40;;
43990;SDS011;29654;50.784;20.604;2023-05-09T16:36:35;2.63;;;1.58;;
43990;SDS011;29654;50.784;20.604;2023-05-09T16:41:40;1.75;;;1.35;;
43990;SDS011;29654;50.784;20.604;2023-05-09T16:46:42;2.15;;;1.40;;
43990;SDS011;29654;50.784;20.604;2023-05-09T16:51:46;2.65;;;1.40;;
43990;SDS011;29654;50.784;20.604;2023-05-09T16:56:50;4.05;;;1.70;;
43990;SDS011;29654;50.784;20.604;2023-05-09T17:01:53;1.35;;;1.25;;
43990;SDS011;29654;50.784;20.604;2023-05-09T17:06:56;1.50;;;1.40;;
43990;SDS011;29654;50.784;20.604;2023-05-09T17:12:00;2.58;;;1.50;;
43990;SDS011;29654;50.784;20.604;2023-05-09T17:17:03;3.22;;;1.73;;
43990;SDS011;29654;50.784;20.604;2023-05-09T17:22:07;2.13;;;1.92;;
43990;SDS011;29654;50.784;20.604;2023-05-09T17:27:11;3.60;;;2.13;;
43990;SDS011;29654;50.784;20.604;2023-05-09T17:32:14;1.70;;;1.60;;
43990;SDS011;29654;50.784;20.604;2023-05-09T17:37:17;1.52;;;1.40;;
43990;SDS011;29654;50.784;20.604;2023-05-09T17:42:20;6.30;;;1.73;;
43990;SDS011;29654;50.784;20.604;2023-05-09T17:47:23;1.67;;;1.58;;
43990;SDS011;29654;50.784;20.604;2023-05-09T17:52:26;2.20;;;1.88;;
43990;SDS011;29654;50.784;20.604;2023-05-09T17:57:30;3.42;;;1.70;;
43990;SDS011;29654;50.784;20.604;2023-05-09T18:02:32;2.47;;;2.00;;
43990;SDS011;29654;50.784;20.604;2023-05-09T18:07:35;4.13;;;3.72;;
43990;SDS011;29654;50.784;20.604;2023-05-09T18:12:41;5.65;;;4.20;;
43990;SDS011;29654;50.784;20.604;2023-05-09T18:17:45;3.60;;;2.72;;
43990;SDS011;29654;50.784;20.604;2023-05-09T18:22:48;3.25;;;2.72;;
43990;SDS011;29654;50.784;20.604;2023-05-09T18:27:52;2.75;;;1.95;;
43990;SDS011;29654;50.784;20.604;2023-05-09T18:32:55;3.78;;;2.75;;
43990;SDS011;29654;50.784;20.604;2023-05-09T18:38:00;4.03;;;2.95;;
43990;SDS011;29654;50.784;20.604;2023-05-09T18:43:04;4.45;;;3.08;;
43990;SDS011;29654;50.784;20.604;2023-05-09T18:48:07;4.20;;;2.70;;
43990;SDS011;29654;50.784;20.604;2023-05-09T18:53:10;3.95;;;3.28;;
43990;SDS011;29654;50.784;20.604;2023-05-09T18:58:14;4.47;;;3.22;;
43990;SDS011;29654;50.784;20.604;2023-05-09T19:03:17;3.60;;;3.25;;
43990;SDS011;29654;50.784;20.604;2023-05-09T19:08:20;4.35;;;3.95;;
43990;SDS011;29654;50.784;20.604;2023-05-09T19:13:24;4.00;;;3.20;;
43990;SDS011;29654;50.784;20.604;2023-05-09T19:18:26;3.95;;;2.97;;
43990;SDS011;29654;50.784;20.604;2023-05-09T19:23:29;4.63;;;3.75;;
43990;SDS011;29654;50.784;20.604;2023-05-09T19:28:33;4.93;;;3.22;;
43990;SDS011;29654;50.784;20.604;2023-05-09T19:33:35;5.47;;;3.13;;
43990;SDS011;29654;50.784;20.604;2023-05-09T19:38:38;4.75;;;4.13;;
43990;SDS011;29654;50.784;20.604;2023-05-09T19:43:42;4.80;;;4.30;;
43990;SDS011;29654;50.784;20.604;2023-05-09T19:48:45;6.45;;;3.45;;
43990;SDS011;29654;50.784;20.604;2023-05-09T19:53:48;5.55;;;5.03;;
43990;SDS011;29654;50.784;20.604;2023-05-09T19:58:52;5.95;;;3.88;;
43990;SDS011;29654;50.784;20.604;2023-05-09T20:03:55;4.78;;;3.85;;
43990;SDS011;29654;50.784;20.604;2023-05-09T20:08:57;7.57;;;3.92;;
43990;SDS011;29654;50.784;20.604;2023-05-09T20:14:01;5.45;;;4.55;;
43990;SDS011;29654;50.784;20.604;2023-05-09T20:19:04;4.55;;;4.05;;
43990;SDS011;29654;50.784;20.604;2023-05-09T20:24:07;7.10;;;4.95;;
43990;SDS011;29654;50.784;20.604;2023-05-09T20:29:12;6.18;;;4.63;;
43990;SDS011;29654;50.784;20.604;2023-05-09T20:34:15;4.93;;;4.05;;
43990;SDS011;29654;50.784;20.604;2023-05-09T20:39:19;6.75;;;5.32;;
43990;SDS011;29654;50.784;20.604;2023-05-09T20:44:25;6.20;;;4.68;;
43990;SDS011;29654;50.784;20.604;2023-05-09T20:49:27;7.22;;;5.72;;
43990;SDS011;29654;50.784;20.604;2023-05-09T20:54:30;6.20;;;5.18;;
43990;SDS011;29654;50.784;20.604;2023-05-09T20:59:34;4.75;;;4.25;;
43990;SDS011;29654;50.784;20.604;2023-05-09T21:04:36;5.50;;;4.22;;
43990;SDS011;29654;50.784;20.604;2023-05-09T21:09:39;6.82;;;5.20;;
43990;SDS011;29654;50.784;20.604;2023-05-09T21:14:43;7.90;;;6.22;;
43990;SDS011;29654;50.784;20.604;2023-05-09T21:19:46;11.07;;;7.03;;
43990;SDS011;29654;50.784;20.604;2023-05-09T21:24:50;7.38;;;4.90;;
43990;SDS011;29654;50.784;20.604;2023-05-09T21:29:55;8.32;;;6.40;;
43990;SDS011;29654;50.784;20.604;2023-05-09T21:34:57;8.35;;;5.70;;
43990;SDS011;29654;50.784;20.604;2023-05-09T21:40:00;7.45;;;5.55;;
43990;SDS011;29654;50.784;20.604;2023-05-09T21:45:05;7.97;;;6.05;;
43990;SDS011;29654;50.784;20.604;2023-05-09T21:50:08;5.47;;;4.38;;
43990;SDS011;29654;50.784;20.604;2023-05-09T21:55:11;8.98;;;5.60;;
43990;SDS011;29654;50.784;20.604;2023-05-09T22:00:16;6.05;;;4.15;;
43990;SDS011;29654;50.784;20.604;2023-05-09T22:05:20;5.82;;;4.70;;
43990;SDS011;29654;50.784;20.604;2023-05-09T22:10:23;6.85;;;4.72;;
43990;SDS011;29654;50.784;20.604;2023-05-09T22:15:27;4.95;;;3.88;;
43990;SDS011;29654;50.784;20.604;2023-05-09T22:20:30;7.28;;;4.07;;
43990;SDS011;29654;50.784;20.604;2023-05-09T22:25:33;6.20;;;4.28;;
43990;SDS011;29654;50.784;20.604;2023-05-09T22:30:37;4.28;;;3.58;;
43990;SDS011;29654;50.784;20.604;2023-05-09T22:35:39;7.07;;;4.60;;
43990;SDS011;29654;50.784;20.604;2023-05-09T22:40:42;6.18;;;3.95;;
43990;SDS011;29654;50.784;20.604;2023-05-09T22:45:46;5.22;;;3.28;;
43990;SDS011;29654;50.784;20.604;2023-05-09T22:50:48;6.55;;;3.53;;
43990;SDS011;29654;50.784;20.604;2023-05-09T22:55:51;5.93;;;4.40;;
43990;SDS011;29654;50.784;20.604;2023-05-09T23:00:55;6.50;;;3.40;;
43990;SDS011;29654;50.784;20.604;2023-05-09T23:05:57;4.40;;;3.65;;
43990;SDS011;29654;50.784;20.604;2023-05-09T23:11:00;4.03;;;3.55;;
43990;SDS011;29654;50.784;20.604;2023-05-09T23:16:05;5.22;;;2.90;;
43990;SDS011;29654;50.784;20.604;2023-05-09T23:21:07;4.75;;;3.25;;
43990;SDS011;29654;50.784;20.604;2023-05-09T23:26:10;5.10;;;3.05;;
43990;SDS011;29654;50.784;20.604;2023-05-09T23:31:14;4.63;;;3.28;;
43990;SDS011;29654;50.784;20.604;2023-05-09T23:36:16;4.30;;;3.40;;
43990;SDS011;29654;50.784;20.604;2023-05-09T23:41:19;5.90;;;3.55;;
43990;SDS011;29654;50.784;20.604;2023-05-09T23:46:23;5.95;;;3.60;;
43990;SDS011;29654;50.784;20.604;2023-05-09T23:51:26;4.30;;;3.40;;
43990;SDS011;29654;50.784;20.604;2023-05-09T23:56:28;5.22;;;3.20;;
